sensor_id;sensor_type;location;lat;lon;timestamp;P1;durP1;ratioP1;P2;durP2;ratioP2
41897;SDS011;27576;53.366;-1.498;2022-10-16T00:00:52;6.95;;;1.27;;
41897;SDS011;27576;53.366;-1.498;2022-10-16T00:03:17;7.82;;;1.83;;
41897;SDS011;27576;53.366;-1.498;2022-10-16T00:05:43;6.80;;;1.50;;
41897;SDS011;27576;53.366;-1.498;2022-10-16T00:08:10;9.18;;;1.90;;
41897;SDS011;27576;53.366;-1.498;2022-10-16T00:10:37;9.30;;;1.90;;
41897;SDS011;27576;53.366;-1.498;2022-10-16T00:13:03;10.98;;;1.95;;
41897;SDS011;27576;53.366;-1.498;2022-10-16T00:15:29;9.80;;;2.00;;
41897;SDS011;27576;53.366;-1.498;2022-10-16T00:17:55;9.57;;;2.00;;
41897;SDS011;27576;53.366;-1.498;2022-10-16T00:20:20;7.65;;;2.17;;
41897;SDS011;27576;53.366;-1.498;2022-10-16T00:22:46;9.02;;;2.33;;
41897;SDS011;27576;53.366;-1.498;2022-10-16T00:25:11;9.23;;;2.15;;
41897;SDS011;27576;53.366;-1.498;2022-10-16T00:27:36;10.68;;;2.33;;
41897;SDS011;27576;53.366;-1.498;2022-10-16T00:30:02;7.97;;;1.73;;
41897;SDS011;27576;53.366;-1.498;2022-10-16T00:32:28;8.57;;;1.77;;
41897;SDS011;27576;53.366;-1.498;2022-10-16T00:34:53;8.10;;;2.00;;
41897;SDS011;27576;53.366;-1.498;2022-10-16T00:37:19;12.82;;;2.63;;
41897;SDS011;27576;53.366;-1.498;2022-10-16T00:39:45;11.82;;;2.60;;
41897;SDS011;27576;53.366;-1.498;2022-10-16T00:42:14;10.57;;;2.38;;
41897;SDS011;27576;53.366;-1.498;2022-10-16T00:47:29;12.70;;;3.05;;
41897;SDS011;27576;53.366;-1.498;2022-10-16T00:50:13;10.00;;;2.42;;
41897;SDS011;27576;53.366;-1.498;2022-10-16T00:52:44;7.75;;;2.00;;
41897;SDS011;27576;53.366;-1.498;2022-10-16T00:55:11;10.18;;;2.20;;
41897;SDS011;27576;53.366;-1.498;2022-10-16T00:57:38;12.55;;;2.47;;
41897;SDS011;27576;53.366;-1.498;2022-10-16T01:00:06;13.85;;;2.95;;
41897;SDS011;27576;53.366;-1.498;2022-10-16T01:02:34;14.88;;;2.60;;
41897;SDS011;27576;53.366;-1.498;2022-10-16T01:04:59;13.25;;;2.45;;
41897;SDS011;27576;53.366;-1.498;2022-10-16T01:13:11;10.25;;;2.28;;
41897;SDS011;27576;53.366;-1.498;2022-10-16T01:18:41;17.13;;;2.65;;
41897;SDS011;27576;53.366;-1.498;2022-10-16T01:21:36;12.40;;;2.50;;
41897;SDS011;27576;53.366;-1.498;2022-10-16T01:37:15;6.93;;;1.70;;
41897;SDS011;27576;53.366;-1.498;2022-10-16T01:39:46;8.38;;;2.00;;
41897;SDS011;27576;53.366;-1.498;2022-10-16T01:42:16;12.27;;;2.53;;
41897;SDS011;27576;53.366;-1.498;2022-10-16T01:44:47;6.82;;;1.95;;
41897;SDS011;27576;53.366;-1.498;2022-10-16T01:47:15;8.18;;;2.08;;
41897;SDS011;27576;53.366;-1.498;2022-10-16T01:49:41;10.55;;;2.47;;
41897;SDS011;27576;53.366;-1.498;2022-10-16T01:52:10;8.75;;;2.03;;
41897;SDS011;27576;53.366;-1.498;2022-10-16T01:54:40;7.70;;;2.38;;
41897;SDS011;27576;53.366;-1.498;2022-10-16T01:57:09;9.02;;;1.98;;
41897;SDS011;27576;53.366;-1.498;2022-10-16T01:59:41;7.88;;;2.00;;
41897;SDS011;27576;53.366;-1.498;2022-10-16T02:02:09;8.07;;;2.65;;
41897;SDS011;27576;53.366;-1.498;2022-10-16T02:05:01;8.13;;;2.00;;
41897;SDS011;27576;53.366;-1.498;2022-10-16T02:07:28;7.75;;;1.90;;
41897;SDS011;27576;53.366;-1.498;2022-10-16T02:09:53;8.45;;;1.50;;
41897;SDS011;27576;53.366;-1.498;2022-10-16T02:12:26;7.30;;;1.70;;
41897;SDS011;27576;53.366;-1.498;2022-10-16T02:14:55;4.38;;;1.40;;
41897;SDS011;27576;53.366;-1.498;2022-10-16T02:17:20;8.73;;;2.22;;
41897;SDS011;27576;53.366;-1.498;2022-10-16T02:19:47;5.80;;;1.60;;
41897;SDS011;27576;53.366;-1.498;2022-10-16T02:22:15;7.57;;;1.98;;
41897;SDS011;27576;53.366;-1.498;2022-10-16T02:24:50;7.55;;;2.17;;
41897;SDS011;27576;53.366;-1.498;2022-10-16T02:27:24;7.28;;;2.17;;
41897;SDS011;27576;53.366;-1.498;2022-10-16T02:29:55;4.40;;;1.70;;
41897;SDS011;27576;53.366;-1.498;2022-10-16T02:32:32;6.70;;;2.05;;
41897;SDS011;27576;53.366;-1.498;2022-10-16T02:34:59;5.82;;;1.70;;
41897;SDS011;27576;53.366;-1.498;2022-10-16T02:37:26;2.75;;;1.20;;
41897;SDS011;27576;53.366;-1.498;2022-10-16T02:39:52;7.38;;;1.88;;
41897;SDS011;27576;53.366;-1.498;2022-10-16T02:42:20;8.65;;;1.67;;
41897;SDS011;27576;53.366;-1.498;2022-10-16T02:44:45;5.88;;;1.63;;
41897;SDS011;27576;53.366;-1.498;2022-10-16T02:47:10;4.32;;;1.30;;
41897;SDS011;27576;53.366;-1.498;2022-10-16T02:49:36;4.45;;;1.58;;
41897;SDS011;27576;53.366;-1.498;2022-10-16T02:52:02;6.70;;;1.75;;
41897;SDS011;27576;53.366;-1.498;2022-10-16T02:54:27;6.72;;;1.42;;
41897;SDS011;27576;53.366;-1.498;2022-10-16T02:56:53;6.00;;;1.30;;
41897;SDS011;27576;53.366;-1.498;2022-10-16T02:59:18;4.13;;;1.10;;
41897;SDS011;27576;53.366;-1.498;2022-10-16T03:01:44;7.45;;;2.03;;
41897;SDS011;27576;53.366;-1.498;2022-10-16T03:04:09;8.98;;;1.85;;
41897;SDS011;27576;53.366;-1.498;2022-10-16T03:06:34;5.45;;;1.48;;
41897;SDS011;27576;53.366;-1.498;2022-10-16T03:09:00;7.07;;;1.58;;
41897;SDS011;27576;53.366;-1.498;2022-10-16T03:11:26;6.30;;;1.70;;
41897;SDS011;27576;53.366;-1.498;2022-10-16T03:13:51;4.25;;;1.63;;
41897;SDS011;27576;53.366;-1.498;2022-10-16T03:16:16;12.48;;;1.85;;
41897;SDS011;27576;53.366;-1.498;2022-10-16T03:18:42;8.55;;;2.08;;
41897;SDS011;27576;53.366;-1.498;2022-10-16T03:21:07;9.15;;;2.15;;
41897;SDS011;27576;53.366;-1.498;2022-10-16T03:23:33;5.55;;;1.63;;
41897;SDS011;27576;53.366;-1.498;2022-10-16T03:25:58;6.10;;;1.40;;
41897;SDS011;27576;53.366;-1.498;2022-10-16T03:28:24;6.05;;;1.52;;
41897;SDS011;27576;53.366;-1.498;2022-10-16T03:30:49;4.43;;;1.90;;
41897;SDS011;27576;53.366;-1.498;2022-10-16T03:33:14;9.20;;;1.45;;
41897;SDS011;27576;53.366;-1.498;2022-10-16T03:35:41;10.90;;;2.17;;
41897;SDS011;27576;53.366;-1.498;2022-10-16T03:38:06;5.05;;;1.20;;
41897;SDS011;27576;53.366;-1.498;2022-10-16T03:40:31;4.03;;;1.20;;
41897;SDS011;27576;53.366;-1.498;2022-10-16T03:42:57;5.75;;;1.50;;
41897;SDS011;27576;53.366;-1.498;2022-10-16T03:45:23;4.65;;;1.25;;
41897;SDS011;27576;53.366;-1.498;2022-10-16T03:47:49;7.80;;;1.70;;
41897;SDS011;27576;53.366;-1.498;2022-10-16T03:50:14;8.90;;;1.60;;
41897;SDS011;27576;53.366;-1.498;2022-10-16T03:52:40;7.50;;;1.50;;
41897;SDS011;27576;53.366;-1.498;2022-10-16T03:55:05;4.35;;;1.27;;
41897;SDS011;27576;53.366;-1.498;2022-10-16T03:57:31;6.10;;;1.52;;
41897;SDS011;27576;53.366;-1.498;2022-10-16T03:59:57;5.93;;;1.52;;
41897;SDS011;27576;53.366;-1.498;2022-10-16T04:02:22;4.88;;;1.40;;
41897;SDS011;27576;53.366;-1.498;2022-10-16T04:04:47;6.38;;;1.40;;
41897;SDS011;27576;53.366;-1.498;2022-10-16T04:07:13;6.43;;;1.48;;
41897;SDS011;27576;53.366;-1.498;2022-10-16T04:09:38;11.60;;;2.35;;
41897;SDS011;27576;53.366;-1.498;2022-10-16T04:12:03;6.68;;;1.42;;
41897;SDS011;27576;53.366;-1.498;2022-10-16T04:14:29;7.63;;;1.70;;
41897;SDS011;27576;53.366;-1.498;2022-10-16T04:16:54;4.90;;;1.58;;
41897;SDS011;27576;53.366;-1.498;2022-10-16T04:19:19;5.38;;;1.50;;
41897;SDS011;27576;53.366;-1.498;2022-10-16T04:21:45;7.15;;;1.45;;
41897;SDS011;27576;53.366;-1.498;2022-10-16T04:24:10;7.18;;;1.55;;
41897;SDS011;27576;53.366;-1.498;2022-10-16T04:26:36;11.13;;;1.55;;
41897;SDS011;27576;53.366;-1.498;2022-10-16T04:29:02;4.78;;;1.60;;
41897;SDS011;27576;53.366;-1.498;2022-10-16T04:31:27;3.35;;;1.38;;
41897;SDS011;27576;53.366;-1.498;2022-10-16T04:33:52;5.00;;;1.30;;
41897;SDS011;27576;53.366;-1.498;2022-10-16T04:36:18;5.80;;;1.42;;
41897;SDS011;27576;53.366;-1.498;2022-10-16T04:38:43;8.05;;;1.55;;
41897;SDS011;27576;53.366;-1.498;2022-10-16T04:41:09;7.80;;;1.58;;
41897;SDS011;27576;53.366;-1.498;2022-10-16T04:43:34;6.82;;;1.55;;
41897;SDS011;27576;53.366;-1.498;2022-10-16T04:45:59;6.88;;;1.20;;
41897;SDS011;27576;53.366;-1.498;2022-10-16T04:48:25;10.05;;;1.65;;
41897;SDS011;27576;53.366;-1.498;2022-10-16T04:50:51;6.00;;;1.58;;
41897;SDS011;27576;53.366;-1.498;2022-10-16T04:53:16;5.30;;;1.35;;
41897;SDS011;27576;53.366;-1.498;2022-10-16T04:55:42;7.78;;;2.08;;
41897;SDS011;27576;53.366;-1.498;2022-10-16T04:58:07;2.53;;;1.15;;
41897;SDS011;27576;53.366;-1.498;2022-10-16T05:00:33;4.38;;;1.35;;
41897;SDS011;27576;53.366;-1.498;2022-10-16T05:02:59;6.78;;;1.60;;
41897;SDS011;27576;53.366;-1.498;2022-10-16T05:05:25;5.13;;;1.10;;
41897;SDS011;27576;53.366;-1.498;2022-10-16T05:07:51;8.20;;;1.40;;
41897;SDS011;27576;53.366;-1.498;2022-10-16T05:10:17;6.03;;;1.70;;
41897;SDS011;27576;53.366;-1.498;2022-10-16T05:12:42;4.18;;;1.48;;
41897;SDS011;27576;53.366;-1.498;2022-10-16T05:15:08;5.55;;;1.85;;
41897;SDS011;27576;53.366;-1.498;2022-10-16T05:17:34;6.97;;;1.50;;
41897;SDS011;27576;53.366;-1.498;2022-10-16T05:20:00;2.15;;;1.00;;
41897;SDS011;27576;53.366;-1.498;2022-10-16T05:22:25;6.82;;;1.30;;
41897;SDS011;27576;53.366;-1.498;2022-10-16T05:24:50;2.08;;;1.10;;
41897;SDS011;27576;53.366;-1.498;2022-10-16T05:27:16;4.32;;;1.13;;
41897;SDS011;27576;53.366;-1.498;2022-10-16T05:29:47;5.25;;;1.38;;
41897;SDS011;27576;53.366;-1.498;2022-10-16T05:32:14;4.53;;;1.15;;
41897;SDS011;27576;53.366;-1.498;2022-10-16T05:34:41;5.57;;;1.45;;
41897;SDS011;27576;53.366;-1.498;2022-10-16T05:37:06;3.60;;;1.55;;
41897;SDS011;27576;53.366;-1.498;2022-10-16T05:39:32;8.93;;;1.27;;
41897;SDS011;27576;53.366;-1.498;2022-10-16T05:41:58;7.13;;;1.70;;
41897;SDS011;27576;53.366;-1.498;2022-10-16T05:44:23;3.72;;;1.48;;
41897;SDS011;27576;53.366;-1.498;2022-10-16T05:46:48;6.97;;;1.60;;
41897;SDS011;27576;53.366;-1.498;2022-10-16T05:49:14;4.55;;;1.10;;
41897;SDS011;27576;53.366;-1.498;2022-10-16T05:51:39;3.47;;;1.33;;
41897;SDS011;27576;53.366;-1.498;2022-10-16T05:54:06;6.07;;;1.40;;
41897;SDS011;27576;53.366;-1.498;2022-10-16T05:56:31;3.95;;;1.25;;
41897;SDS011;27576;53.366;-1.498;2022-10-16T05:58:57;5.70;;;1.30;;
41897;SDS011;27576;53.366;-1.498;2022-10-16T06:01:22;5.15;;;1.30;;
41897;SDS011;27576;53.366;-1.498;2022-10-16T06:03:49;2.42;;;0.90;;
41897;SDS011;27576;53.366;-1.498;2022-10-16T06:06:19;3.83;;;1.20;;
41897;SDS011;27576;53.366;-1.498;2022-10-16T06:08:47;3.88;;;1.30;;
41897;SDS011;27576;53.366;-1.498;2022-10-16T06:11:14;5.68;;;1.15;;
41897;SDS011;27576;53.366;-1.498;2022-10-16T06:13:44;2.78;;;1.05;;
41897;SDS011;27576;53.366;-1.498;2022-10-16T06:16:11;3.63;;;1.20;;
41897;SDS011;27576;53.366;-1.498;2022-10-16T06:18:37;4.68;;;1.35;;
41897;SDS011;27576;53.366;-1.498;2022-10-16T06:21:10;4.43;;;1.50;;
41897;SDS011;27576;53.366;-1.498;2022-10-16T06:23:37;3.95;;;1.20;;
41897;SDS011;27576;53.366;-1.498;2022-10-16T06:26:09;9.95;;;1.67;;
41897;SDS011;27576;53.366;-1.498;2022-10-16T06:28:36;6.28;;;1.40;;
41897;SDS011;27576;53.366;-1.498;2022-10-16T06:31:03;7.20;;;1.30;;
41897;SDS011;27576;53.366;-1.498;2022-10-16T06:33:29;6.60;;;1.23;;
41897;SDS011;27576;53.366;-1.498;2022-10-16T06:36:02;3.25;;;1.00;;
41897;SDS011;27576;53.366;-1.498;2022-10-16T06:38:28;4.78;;;1.23;;
41897;SDS011;27576;53.366;-1.498;2022-10-16T06:40:53;5.47;;;1.05;;
41897;SDS011;27576;53.366;-1.498;2022-10-16T06:43:19;6.63;;;1.50;;
41897;SDS011;27576;53.366;-1.498;2022-10-16T06:45:50;7.30;;;1.58;;
41897;SDS011;27576;53.366;-1.498;2022-10-16T06:48:18;2.95;;;1.10;;
41897;SDS011;27576;53.366;-1.498;2022-10-16T06:50:54;10.63;;;1.30;;
41897;SDS011;27576;53.366;-1.498;2022-10-16T06:53:22;4.13;;;1.35;;
41897;SDS011;27576;53.366;-1.498;2022-10-16T06:55:48;6.03;;;5.15;;
41897;SDS011;27576;53.366;-1.498;2022-10-16T06:58:13;4.00;;;1.63;;
41897;SDS011;27576;53.366;-1.498;2022-10-16T07:00:38;5.88;;;1.45;;
41897;SDS011;27576;53.366;-1.498;2022-10-16T07:03:04;5.57;;;1.42;;
41897;SDS011;27576;53.366;-1.498;2022-10-16T07:05:29;5.72;;;1.73;;
41897;SDS011;27576;53.366;-1.498;2022-10-16T07:07:54;7.43;;;1.70;;
41897;SDS011;27576;53.366;-1.498;2022-10-16T07:10:20;8.73;;;1.83;;
41897;SDS011;27576;53.366;-1.498;2022-10-16T07:12:49;7.18;;;1.55;;
41897;SDS011;27576;53.366;-1.498;2022-10-16T07:15:14;3.63;;;1.60;;
41897;SDS011;27576;53.366;-1.498;2022-10-16T07:17:39;2.90;;;0.98;;
41897;SDS011;27576;53.366;-1.498;2022-10-16T07:20:05;2.10;;;0.90;;
41897;SDS011;27576;53.366;-1.498;2022-10-16T07:22:31;4.78;;;1.23;;
41897;SDS011;27576;53.366;-1.498;2022-10-16T07:24:56;6.00;;;2.30;;
41897;SDS011;27576;53.366;-1.498;2022-10-16T07:27:22;5.05;;;1.30;;
41897;SDS011;27576;53.366;-1.498;2022-10-16T07:29:48;3.90;;;1.33;;
41897;SDS011;27576;53.366;-1.498;2022-10-16T07:32:14;2.97;;;1.13;;
41897;SDS011;27576;53.366;-1.498;2022-10-16T07:34:39;6.07;;;1.33;;
41897;SDS011;27576;53.366;-1.498;2022-10-16T07:37:05;4.88;;;1.38;;
41897;SDS011;27576;53.366;-1.498;2022-10-16T07:39:30;5.25;;;1.42;;
41897;SDS011;27576;53.366;-1.498;2022-10-16T07:41:55;5.88;;;1.55;;
41897;SDS011;27576;53.366;-1.498;2022-10-16T07:44:21;5.32;;;0.93;;
41897;SDS011;27576;53.366;-1.498;2022-10-16T07:46:46;2.78;;;1.08;;
41897;SDS011;27576;53.366;-1.498;2022-10-16T07:49:11;6.05;;;1.42;;
41897;SDS011;27576;53.366;-1.498;2022-10-16T07:51:37;2.85;;;1.40;;
41897;SDS011;27576;53.366;-1.498;2022-10-16T07:54:04;6.55;;;1.40;;
41897;SDS011;27576;53.366;-1.498;2022-10-16T07:56:30;3.80;;;1.00;;
41897;SDS011;27576;53.366;-1.498;2022-10-16T07:58:56;4.40;;;1.48;;
41897;SDS011;27576;53.366;-1.498;2022-10-16T08:01:22;5.25;;;1.77;;
41897;SDS011;27576;53.366;-1.498;2022-10-16T08:03:48;8.02;;;1.80;;
41897;SDS011;27576;53.366;-1.498;2022-10-16T08:06:15;5.28;;;1.40;;
41897;SDS011;27576;53.366;-1.498;2022-10-16T08:08:41;4.50;;;1.00;;
41897;SDS011;27576;53.366;-1.498;2022-10-16T08:11:06;4.55;;;1.58;;
41897;SDS011;27576;53.366;-1.498;2022-10-16T08:13:32;7.05;;;1.50;;
41897;SDS011;27576;53.366;-1.498;2022-10-16T08:15:57;3.53;;;1.25;;
41897;SDS011;27576;53.366;-1.498;2022-10-16T08:18:22;7.13;;;1.73;;
41897;SDS011;27576;53.366;-1.498;2022-10-16T08:20:54;2.33;;;1.00;;
41897;SDS011;27576;53.366;-1.498;2022-10-16T08:23:24;5.90;;;1.25;;
41897;SDS011;27576;53.366;-1.498;2022-10-16T08:25:51;4.60;;;1.27;;
41897;SDS011;27576;53.366;-1.498;2022-10-16T08:28:17;4.43;;;1.38;;
41897;SDS011;27576;53.366;-1.498;2022-10-16T08:30:42;3.42;;;1.17;;
41897;SDS011;27576;53.366;-1.498;2022-10-16T08:33:08;3.15;;;1.30;;
41897;SDS011;27576;53.366;-1.498;2022-10-16T08:35:33;2.42;;;1.10;;
41897;SDS011;27576;53.366;-1.498;2022-10-16T08:37:58;6.13;;;1.50;;
41897;SDS011;27576;53.366;-1.498;2022-10-16T08:40:28;2.80;;;1.17;;
41897;SDS011;27576;53.366;-1.498;2022-10-16T08:48:26;7.35;;;1.55;;
41897;SDS011;27576;53.366;-1.498;2022-10-16T08:51:01;3.03;;;1.70;;
41897;SDS011;27576;53.366;-1.498;2022-10-16T08:53:28;5.90;;;1.45;;
41897;SDS011;27576;53.366;-1.498;2022-10-16T08:55:58;3.55;;;1.52;;
41897;SDS011;27576;53.366;-1.498;2022-10-16T08:58:26;2.15;;;1.20;;
41897;SDS011;27576;53.366;-1.498;2022-10-16T09:00:54;5.15;;;1.23;;
41897;SDS011;27576;53.366;-1.498;2022-10-16T09:06:16;6.47;;;1.40;;
41897;SDS011;27576;53.366;-1.498;2022-10-16T09:17:01;3.65;;;1.27;;
41897;SDS011;27576;53.366;-1.498;2022-10-16T09:19:51;2.33;;;1.05;;
41897;SDS011;27576;53.366;-1.498;2022-10-16T09:22:37;3.50;;;1.20;;
41897;SDS011;27576;53.366;-1.498;2022-10-16T09:25:16;3.20;;;1.20;;
41897;SDS011;27576;53.366;-1.498;2022-10-16T09:27:45;4.88;;;1.50;;
41897;SDS011;27576;53.366;-1.498;2022-10-16T09:30:14;3.13;;;1.25;;
41897;SDS011;27576;53.366;-1.498;2022-10-16T09:32:42;2.67;;;1.02;;
41897;SDS011;27576;53.366;-1.498;2022-10-16T09:35:14;3.40;;;1.15;;
41897;SDS011;27576;53.366;-1.498;2022-10-16T09:37:43;3.75;;;1.38;;
41897;SDS011;27576;53.366;-1.498;2022-10-16T09:40:12;3.05;;;1.13;;
41897;SDS011;27576;53.366;-1.498;2022-10-16T09:42:48;4.60;;;1.77;;
41897;SDS011;27576;53.366;-1.498;2022-10-16T09:45:21;5.13;;;1.23;;
41897;SDS011;27576;53.366;-1.498;2022-10-16T09:47:48;12.60;;;1.55;;
41897;SDS011;27576;53.366;-1.498;2022-10-16T09:50:20;3.95;;;1.50;;
41897;SDS011;27576;53.366;-1.498;2022-10-16T09:52:45;4.22;;;1.42;;
41897;SDS011;27576;53.366;-1.498;2022-10-16T09:55:13;5.40;;;1.30;;
41897;SDS011;27576;53.366;-1.498;2022-10-16T09:57:52;5.22;;;1.65;;
41897;SDS011;27576;53.366;-1.498;2022-10-16T10:00:19;1.92;;;1.10;;
41897;SDS011;27576;53.366;-1.498;2022-10-16T10:02:46;3.38;;;1.30;;
41897;SDS011;27576;53.366;-1.498;2022-10-16T10:05:25;3.22;;;0.95;;
41897;SDS011;27576;53.366;-1.498;2022-10-16T10:07:57;3.67;;;1.40;;
41897;SDS011;27576;53.366;-1.498;2022-10-16T10:10:31;5.15;;;1.48;;
41897;SDS011;27576;53.366;-1.498;2022-10-16T10:12:57;2.92;;;1.00;;
41897;SDS011;27576;53.366;-1.498;2022-10-16T10:15:24;3.30;;;1.13;;
41897;SDS011;27576;53.366;-1.498;2022-10-16T10:20:33;3.45;;;1.42;;
41897;SDS011;27576;53.366;-1.498;2022-10-16T10:23:01;6.40;;;1.10;;
41897;SDS011;27576;53.366;-1.498;2022-10-16T10:36:41;4.97;;;1.10;;
41897;SDS011;27576;53.366;-1.498;2022-10-16T10:47:43;5.10;;;1.10;;
41897;SDS011;27576;53.366;-1.498;2022-10-16T10:53:21;4.70;;;1.05;;
41897;SDS011;27576;53.366;-1.498;2022-10-16T11:01:17;2.92;;;1.10;;
41897;SDS011;27576;53.366;-1.498;2022-10-16T11:12:01;2.20;;;1.00;;
41897;SDS011;27576;53.366;-1.498;2022-10-16T11:14:41;1.65;;;0.82;;
41897;SDS011;27576;53.366;-1.498;2022-10-16T11:17:22;3.78;;;1.02;;
41897;SDS011;27576;53.366;-1.498;2022-10-16T11:19:55;4.22;;;1.10;;
41897;SDS011;27576;53.366;-1.498;2022-10-16T11:27:44;4.40;;;0.95;;
41897;SDS011;27576;53.366;-1.498;2022-10-16T11:30:18;2.60;;;1.00;;
41897;SDS011;27576;53.366;-1.498;2022-10-16T11:33:33;2.83;;;1.10;;
41897;SDS011;27576;53.366;-1.498;2022-10-16T11:35:37;4.72;;;1.10;;
41897;SDS011;27576;53.366;-1.498;2022-10-16T11:38:21;3.10;;;1.10;;
41897;SDS011;27576;53.366;-1.498;2022-10-16T11:40:48;2.50;;;0.90;;
41897;SDS011;27576;53.366;-1.498;2022-10-16T11:46:15;3.97;;;1.20;;
41897;SDS011;27576;53.366;-1.498;2022-10-16T11:48:49;2.60;;;0.98;;
41897;SDS011;27576;53.366;-1.498;2022-10-16T11:51:37;4.15;;;0.90;;
41897;SDS011;27576;53.366;-1.498;2022-10-16T11:56:52;1.65;;;0.80;;
41897;SDS011;27576;53.366;-1.498;2022-10-16T11:59:28;1.48;;;0.47;;
41897;SDS011;27576;53.366;-1.498;2022-10-16T12:04:50;0.88;;;0.50;;
41897;SDS011;27576;53.366;-1.498;2022-10-16T12:07:32;2.97;;;0.70;;
41897;SDS011;27576;53.366;-1.498;2022-10-16T12:10:10;2.88;;;0.50;;
41897;SDS011;27576;53.366;-1.498;2022-10-16T12:12:45;1.10;;;0.55;;
41897;SDS011;27576;53.366;-1.498;2022-10-16T12:17:44;2.90;;;1.00;;
41897;SDS011;27576;53.366;-1.498;2022-10-16T12:22:42;2.55;;;0.65;;
41897;SDS011;27576;53.366;-1.498;2022-10-16T12:25:53;0.88;;;0.40;;
41897;SDS011;27576;53.366;-1.498;2022-10-16T12:30:39;3.60;;;0.70;;
41897;SDS011;27576;53.366;-1.498;2022-10-16T12:33:17;2.97;;;0.77;;
41897;SDS011;27576;53.366;-1.498;2022-10-16T12:35:59;1.85;;;0.68;;
41897;SDS011;27576;53.366;-1.498;2022-10-16T12:38:37;1.35;;;0.50;;
41897;SDS011;27576;53.366;-1.498;2022-10-16T12:41:11;1.45;;;0.70;;
41897;SDS011;27576;53.366;-1.498;2022-10-16T12:43:43;3.95;;;0.70;;
41897;SDS011;27576;53.366;-1.498;2022-10-16T12:48:36;4.45;;;0.75;;
41897;SDS011;27576;53.366;-1.498;2022-10-16T13:04:40;4.85;;;0.73;;
41897;SDS011;27576;53.366;-1.498;2022-10-16T13:18:20;1.50;;;0.70;;
41897;SDS011;27576;53.366;-1.498;2022-10-16T13:23:24;2.95;;;0.80;;
41897;SDS011;27576;53.366;-1.498;2022-10-16T13:26:15;2.53;;;0.93;;
41897;SDS011;27576;53.366;-1.498;2022-10-16T13:28:59;2.40;;;0.77;;
41897;SDS011;27576;53.366;-1.498;2022-10-16T13:31:26;2.33;;;0.80;;
41897;SDS011;27576;53.366;-1.498;2022-10-16T13:33:54;3.40;;;0.75;;
41897;SDS011;27576;53.366;-1.498;2022-10-16T13:36:25;5.20;;;0.98;;
41897;SDS011;27576;53.366;-1.498;2022-10-16T13:41:37;2.22;;;0.73;;
41897;SDS011;27576;53.366;-1.498;2022-10-16T13:44:03;1.55;;;0.65;;
41897;SDS011;27576;53.366;-1.498;2022-10-16T13:46:30;4.15;;;0.90;;
41897;SDS011;27576;53.366;-1.498;2022-10-16T13:49:10;3.70;;;0.82;;
41897;SDS011;27576;53.366;-1.498;2022-10-16T13:51:41;1.88;;;0.93;;
41897;SDS011;27576;53.366;-1.498;2022-10-16T13:54:18;2.55;;;0.73;;
41897;SDS011;27576;53.366;-1.498;2022-10-16T13:56:43;3.00;;;1.10;;
41897;SDS011;27576;53.366;-1.498;2022-10-16T13:59:25;2.42;;;0.90;;
41897;SDS011;27576;53.366;-1.498;2022-10-16T14:01:52;1.40;;;0.80;;
41897;SDS011;27576;53.366;-1.498;2022-10-16T14:04:20;1.75;;;1.05;;
41897;SDS011;27576;53.366;-1.498;2022-10-16T14:06:48;2.65;;;1.75;;
41897;SDS011;27576;53.366;-1.498;2022-10-16T14:09:23;5.07;;;1.60;;
41897;SDS011;27576;53.366;-1.498;2022-10-16T14:11:55;2.58;;;1.00;;
41897;SDS011;27576;53.366;-1.498;2022-10-16T14:14:22;3.95;;;1.48;;
41897;SDS011;27576;53.366;-1.498;2022-10-16T14:16:48;6.35;;;1.92;;
41897;SDS011;27576;53.366;-1.498;2022-10-16T14:21:53;2.95;;;0.85;;
41897;SDS011;27576;53.366;-1.498;2022-10-16T14:24:36;3.17;;;1.20;;
41897;SDS011;27576;53.366;-1.498;2022-10-16T14:27:28;2.53;;;1.20;;
41897;SDS011;27576;53.366;-1.498;2022-10-16T14:30:01;4.35;;;1.13;;
41897;SDS011;27576;53.366;-1.498;2022-10-16T14:32:33;0.60;;;0.55;;
41897;SDS011;27576;53.366;-1.498;2022-10-16T14:34:59;3.35;;;0.77;;
41897;SDS011;27576;53.366;-1.498;2022-10-16T14:37:25;1.52;;;0.82;;
41897;SDS011;27576;53.366;-1.498;2022-10-16T14:39:52;3.85;;;1.30;;
41897;SDS011;27576;53.366;-1.498;2022-10-16T14:42:19;3.05;;;0.88;;
41897;SDS011;27576;53.366;-1.498;2022-10-16T14:44:49;2.63;;;1.10;;
41897;SDS011;27576;53.366;-1.498;2022-10-16T14:47:18;4.15;;;0.70;;
41897;SDS011;27576;53.366;-1.498;2022-10-16T14:49:48;2.58;;;0.95;;
41897;SDS011;27576;53.366;-1.498;2022-10-16T14:52:14;2.15;;;1.23;;
41897;SDS011;27576;53.366;-1.498;2022-10-16T14:54:39;2.60;;;0.60;;
41897;SDS011;27576;53.366;-1.498;2022-10-16T14:57:05;2.88;;;1.10;;
41897;SDS011;27576;53.366;-1.498;2022-10-16T14:59:43;3.15;;;0.93;;
41897;SDS011;27576;53.366;-1.498;2022-10-16T15:04:53;1.42;;;0.60;;
41897;SDS011;27576;53.366;-1.498;2022-10-16T15:07:18;2.25;;;0.80;;
41897;SDS011;27576;53.366;-1.498;2022-10-16T15:09:44;2.78;;;1.17;;
41897;SDS011;27576;53.366;-1.498;2022-10-16T15:12:09;3.55;;;1.00;;
41897;SDS011;27576;53.366;-1.498;2022-10-16T15:14:35;1.48;;;0.85;;
41897;SDS011;27576;53.366;-1.498;2022-10-16T15:17:00;3.20;;;0.95;;
41897;SDS011;27576;53.366;-1.498;2022-10-16T15:19:25;2.92;;;1.00;;
41897;SDS011;27576;53.366;-1.498;2022-10-16T15:21:51;5.70;;;1.30;;
41897;SDS011;27576;53.366;-1.498;2022-10-16T15:24:17;3.83;;;1.35;;
41897;SDS011;27576;53.366;-1.498;2022-10-16T15:26:43;3.17;;;1.00;;
41897;SDS011;27576;53.366;-1.498;2022-10-16T15:29:10;2.78;;;1.10;;
41897;SDS011;27576;53.366;-1.498;2022-10-16T15:31:36;2.35;;;1.13;;
41897;SDS011;27576;53.366;-1.498;2022-10-16T15:34:02;8.30;;;1.48;;
41897;SDS011;27576;53.366;-1.498;2022-10-16T15:36:30;4.07;;;1.50;;
41897;SDS011;27576;53.366;-1.498;2022-10-16T15:38:58;4.45;;;1.75;;
41897;SDS011;27576;53.366;-1.498;2022-10-16T15:41:24;3.85;;;1.50;;
41897;SDS011;27576;53.366;-1.498;2022-10-16T15:43:49;5.55;;;1.83;;
41897;SDS011;27576;53.366;-1.498;2022-10-16T15:46:18;2.85;;;1.45;;
41897;SDS011;27576;53.366;-1.498;2022-10-16T15:48:44;2.45;;;1.60;;
41897;SDS011;27576;53.366;-1.498;2022-10-16T15:51:10;3.88;;;1.67;;
41897;SDS011;27576;53.366;-1.498;2022-10-16T15:53:35;5.03;;;1.75;;
41897;SDS011;27576;53.366;-1.498;2022-10-16T15:56:03;6.63;;;2.20;;
41897;SDS011;27576;53.366;-1.498;2022-10-16T15:58:32;2.88;;;1.25;;
41897;SDS011;27576;53.366;-1.498;2022-10-16T16:00:58;4.10;;;1.80;;
41897;SDS011;27576;53.366;-1.498;2022-10-16T16:03:29;6.05;;;1.60;;
41897;SDS011;27576;53.366;-1.498;2022-10-16T16:05:55;5.20;;;2.20;;
41897;SDS011;27576;53.366;-1.498;2022-10-16T16:08:21;5.10;;;2.47;;
41897;SDS011;27576;53.366;-1.498;2022-10-16T16:13:31;3.55;;;1.77;;
41897;SDS011;27576;53.366;-1.498;2022-10-16T16:15:57;4.47;;;2.10;;
41897;SDS011;27576;53.366;-1.498;2022-10-16T16:18:23;6.07;;;1.90;;
41897;SDS011;27576;53.366;-1.498;2022-10-16T16:20:49;6.95;;;1.90;;
41897;SDS011;27576;53.366;-1.498;2022-10-16T16:23:15;9.75;;;1.80;;
41897;SDS011;27576;53.366;-1.498;2022-10-16T16:25:41;5.95;;;2.17;;
41897;SDS011;27576;53.366;-1.498;2022-10-16T16:28:07;6.00;;;2.03;;
41897;SDS011;27576;53.366;-1.498;2022-10-16T16:30:35;4.50;;;2.03;;
41897;SDS011;27576;53.366;-1.498;2022-10-16T16:33:00;4.80;;;2.13;;
41897;SDS011;27576;53.366;-1.498;2022-10-16T16:35:26;5.82;;;1.70;;
41897;SDS011;27576;53.366;-1.498;2022-10-16T16:37:51;6.03;;;2.50;;
41897;SDS011;27576;53.366;-1.498;2022-10-16T16:40:16;7.82;;;2.92;;
41897;SDS011;27576;53.366;-1.498;2022-10-16T16:42:42;5.45;;;2.25;;
41897;SDS011;27576;53.366;-1.498;2022-10-16T16:45:07;5.07;;;2.45;;
41897;SDS011;27576;53.366;-1.498;2022-10-16T16:47:33;7.25;;;2.72;;
41897;SDS011;27576;53.366;-1.498;2022-10-16T16:49:58;7.07;;;2.83;;
41897;SDS011;27576;53.366;-1.498;2022-10-16T16:52:24;9.43;;;2.88;;
41897;SDS011;27576;53.366;-1.498;2022-10-16T16:54:49;7.15;;;2.60;;
41897;SDS011;27576;53.366;-1.498;2022-10-16T16:57:18;5.70;;;2.58;;
41897;SDS011;27576;53.366;-1.498;2022-10-16T16:59:44;6.15;;;3.03;;
41897;SDS011;27576;53.366;-1.498;2022-10-16T17:02:10;8.30;;;3.45;;